createdAt,value
2018-11-07T00:01:44.829Z,91.20
2018-11-07T00:04:17.240Z,94.00
2018-11-07T00:06:49.428Z,101.00
2018-11-07T00:09:21.811Z,98.00
2018-11-07T00:11:53.719Z,108.80
2018-11-07T00:14:26.351Z,97.60
2018-11-07T00:16:58.578Z,109.20
2018-11-07T00:19:30.523Z,102.60
2018-11-07T00:22:05.405Z,105.20
2018-11-07T00:24:37.587Z,104.80
2018-11-07T00:27:09.653Z,109.80
2018-11-07T00:29:42.010Z,108.80
2018-11-07T00:32:14.094Z,107.20
2018-11-07T00:34:46.410Z,98.60
2018-11-07T00:37:18.477Z,107.00
2018-11-07T00:39:50.478Z,97.80
2018-11-07T00:42:22.549Z,123.40
2018-11-07T00:44:55.135Z,120.80
2018-11-07T00:47:27.382Z,110.40
2018-11-07T00:49:59.458Z,104.80
2018-11-07T00:52:31.278Z,110.00
2018-11-07T00:55:03.293Z,109.40
2018-11-07T00:57:35.335Z,114.40
2018-11-07T01:00:11.534Z,107.60
2018-11-07T01:02:43.364Z,105.20
2018-11-07T01:05:15.680Z,96.00
2018-11-07T01:07:48.496Z,99.20
2018-11-07T01:10:20.566Z,108.00
2018-11-07T01:12:52.845Z,115.40
2018-11-07T01:15:25.288Z,116.20
2018-11-07T01:17:57.350Z,111.00
2018-11-07T01:20:29.489Z,115.40
2018-11-07T01:23:01.684Z,118.00
2018-11-07T01:25:34.048Z,125.80
2018-11-07T01:28:06.419Z,112.60
2018-11-07T01:30:38.537Z,108.20
2018-11-07T01:33:10.835Z,93.60
2018-11-07T01:35:57.714Z,130.40
2018-11-07T01:38:29.947Z,155.60
2018-11-07T01:41:01.843Z,166.60
2018-11-07T01:43:34.228Z,157.60
2018-11-07T01:46:07.154Z,165.40
2018-11-07T01:48:39.343Z,164.20
2018-11-07T01:51:11.315Z,168.80
2018-11-07T01:53:43.515Z,173.25
2018-11-07T01:56:15.739Z,188.75
2018-11-07T01:58:47.711Z,188.50
2018-11-07T02:01:19.732Z,182.25
2018-11-07T02:03:51.640Z,200.00
2018-11-07T02:06:23.759Z,195.00
2018-11-07T02:08:55.596Z,209.75
2018-11-07T02:11:27.320Z,208.50
2018-11-07T02:13:58.786Z,187.25
2018-11-07T02:16:30.845Z,197.50
2018-11-07T02:19:03.007Z,201.25
2018-11-07T02:21:34.979Z,203.75
2018-11-07T02:24:07.323Z,208.25
2018-11-07T02:26:40.202Z,208.00
2018-11-07T02:29:15.145Z,215.50
2018-11-07T02:31:47.673Z,211.75
2018-11-07T02:34:19.714Z,210.00
2018-11-07T02:36:51.731Z,187.75
2018-11-07T02:39:23.663Z,192.25
2018-11-07T02:41:55.921Z,188.75
2018-11-07T02:44:28.364Z,189.50
2018-11-07T02:47:00.758Z,189.25
2018-11-07T02:49:33.079Z,183.75
2018-11-07T02:52:06.084Z,172.25
2018-11-07T02:54:38.286Z,179.80
2018-11-07T02:57:10.488Z,167.60
2018-11-07T02:59:42.547Z,167.80
2018-11-07T03:02:14.666Z,178.80
2018-11-07T03:04:46.644Z,167.00
2018-11-07T03:07:18.844Z,179.60
2018-11-07T03:09:51.365Z,174.40
2018-11-07T03:12:23.534Z,159.00
2018-11-07T03:14:55.376Z,171.80
2018-11-07T03:17:27.734Z,160.80
2018-11-07T03:19:59.684Z,148.40
2018-11-07T03:22:32.191Z,155.00
2018-11-07T03:25:04.306Z,159.80
2018-11-07T03:27:36.324Z,159.80
2018-11-07T03:30:09.359Z,168.00
2018-11-07T03:32:41.235Z,160.60
2018-11-07T03:35:17.545Z,147.80
2018-11-07T03:37:49.504Z,133.80
2018-11-07T03:40:21.905Z,97.00
2018-11-07T03:42:54.013Z,118.60
2018-11-07T03:45:31.158Z,121.20
2018-11-07T03:48:03.647Z,137.20
2018-11-07T03:50:35.577Z,115.00
2018-11-07T03:53:07.697Z,122.00
2018-11-07T03:55:39.632Z,110.20
2018-11-07T03:58:11.652Z,130.20
2018-11-07T04:00:43.852Z,136.40
2018-11-07T04:05:42.947Z,125.75
2018-11-07T04:08:17.681Z,115.20
2018-11-07T04:10:49.345Z,106.60
2018-11-07T04:13:21.456Z,106.00
2018-11-07T04:16:45.450Z,107.75
2018-11-07T04:19:18.425Z,115.40
2018-11-07T04:21:50.774Z,123.40
2018-11-07T04:24:22.497Z,112.00
2018-11-07T04:26:54.678Z,108.40
2018-11-07T04:29:27.997Z,113.00
2018-11-07T04:32:00.361Z,110.80
2018-11-07T04:34:32.408Z,101.60
2018-11-07T04:37:04.700Z,133.40
2018-11-07T04:39:36.985Z,125.40
2018-11-07T04:42:09.701Z,128.80
2018-11-07T04:44:41.894Z,121.40
2018-11-07T04:47:13.882Z,130.60
2018-11-07T04:49:46.607Z,124.20
2018-11-07T04:52:18.864Z,142.60
2018-11-07T04:54:50.772Z,131.40
2018-11-07T04:57:22.619Z,153.80
2018-11-07T04:59:54.580Z,129.80
2018-11-07T05:02:26.364Z,113.60
2018-11-07T05:04:58.394Z,113.40
2018-11-07T05:07:30.474Z,116.00
2018-11-07T05:10:02.647Z,110.60
2018-11-07T05:12:34.605Z,113.40
2018-11-07T05:15:07.264Z,122.00
2018-11-07T05:17:39.794Z,128.40
2018-11-07T05:20:13.425Z,115.00
2018-11-07T05:22:45.559Z,126.80
2018-11-07T05:25:17.819Z,140.60
2018-11-07T05:27:49.939Z,131.60
2018-11-07T05:30:22.211Z,123.20
2018-11-07T05:32:54.203Z,121.20
2018-11-07T05:35:26.313Z,137.60
2018-11-07T05:37:58.208Z,132.60
2018-11-07T05:40:30.294Z,135.80
2018-11-07T05:43:02.455Z,138.80
2018-11-07T05:45:34.516Z,149.80
2018-11-07T05:48:07.767Z,147.20
2018-11-07T05:50:40.612Z,151.80
2018-11-07T05:53:12.698Z,159.80
2018-11-07T05:55:45.047Z,157.00
2018-11-07T05:58:17.081Z,165.60
2018-11-07T06:00:49.256Z,165.40
2018-11-07T06:03:21.196Z,156.20
2018-11-07T06:05:53.450Z,179.60
2018-11-07T06:08:25.609Z,157.20
2018-11-07T06:10:57.881Z,166.80
2018-11-07T06:13:30.031Z,159.20
2018-11-07T06:16:02.768Z,153.80
2018-11-07T06:18:34.797Z,159.60
2018-11-07T06:21:07.670Z,128.60
2018-11-07T06:23:40.026Z,134.80
2018-11-07T06:26:12.245Z,130.60
2018-11-07T06:28:44.889Z,123.80
2018-11-07T06:31:17.194Z,120.60
2018-11-07T06:33:49.014Z,129.60
2018-11-07T06:36:21.313Z,120.60
2018-11-07T06:38:53.279Z,115.20
2018-11-07T06:41:25.352Z,121.80
2018-11-07T06:43:57.352Z,108.80
2018-11-07T06:46:29.542Z,109.00
2018-11-07T06:49:01.557Z,110.20
2018-11-07T06:57:08.151Z,102.20
2018-11-07T06:59:40.271Z,96.40
2018-11-07T07:02:12.440Z,111.80
2018-11-07T07:04:44.578Z,103.80
2018-11-07T07:07:16.754Z,106.00
2018-11-07T07:09:48.854Z,107.60
2018-11-07T07:12:21.247Z,102.00
2018-11-07T07:14:53.329Z,100.40
2018-11-07T07:17:25.546Z,106.80
2018-11-07T07:19:57.749Z,111.20
2018-11-07T07:22:30.164Z,108.40
2018-11-07T07:25:02.313Z,101.80
2018-11-07T07:27:34.627Z,105.60
2018-11-07T07:30:08.392Z,101.20
2018-11-07T07:32:40.854Z,100.00
2018-11-07T07:35:13.261Z,97.80
2018-11-07T07:37:45.527Z,102.20
2018-11-07T07:40:17.926Z,106.20
2018-11-07T07:42:50.329Z,95.80
2018-11-07T07:45:22.333Z,104.20
2018-11-07T07:47:54.519Z,106.40
2018-11-07T07:50:26.494Z,106.80
2018-11-07T07:52:59.125Z,98.80
2018-11-07T07:55:30.880Z,105.40
2018-11-07T07:58:02.695Z,101.20
2018-11-07T08:00:35.593Z,107.80
2018-11-07T08:03:07.730Z,102.60
2018-11-07T08:05:39.469Z,102.40
2018-11-07T08:08:11.555Z,101.20
2018-11-07T08:10:43.600Z,105.20
2018-11-07T08:13:15.748Z,99.80
2018-11-07T08:15:47.592Z,100.20
2018-11-07T08:18:19.775Z,105.60
2018-11-07T08:20:51.457Z,93.40
2018-11-07T08:23:23.914Z,110.20
2018-11-07T08:25:55.869Z,95.80
2018-11-07T08:28:27.786Z,109.80
2018-11-07T08:31:02.024Z,102.20
2018-11-07T08:33:34.592Z,108.40
2018-11-07T08:36:06.892Z,95.00
2018-11-07T08:38:39.069Z,113.40
2018-11-07T08:41:10.885Z,105.60
2018-11-07T08:43:42.984Z,94.20
2018-11-07T08:46:15.077Z,105.60
2018-11-07T08:48:47.172Z,92.40
2018-11-07T08:51:19.089Z,93.20
2018-11-07T08:53:51.512Z,97.80
2018-11-07T08:56:23.259Z,110.80
2018-11-07T08:58:55.294Z,104.00
2018-11-07T09:01:27.491Z,91.20
2018-11-07T09:03:59.928Z,92.00
2018-11-07T09:06:31.932Z,91.80
2018-11-07T09:09:04.658Z,106.00
2018-11-07T09:11:36.709Z,98.60
2018-11-07T09:14:08.970Z,94.20
2018-11-07T09:16:41.004Z,109.80
2018-11-07T09:19:13.055Z,107.80
2018-11-07T09:21:44.917Z,92.60
2018-11-07T09:24:17.530Z,103.00
2018-11-07T09:26:49.592Z,92.60
2018-11-07T09:29:21.777Z,95.00
2018-11-07T09:31:54.013Z,107.20
2018-11-07T09:34:26.069Z,100.20
2018-11-07T09:36:57.961Z,103.00
2018-11-07T09:39:29.931Z,100.40
2018-11-07T09:42:01.905Z,111.00
2018-11-07T09:44:34.278Z,104.80
2018-11-07T09:47:06.637Z,94.60
2018-11-07T09:49:38.948Z,105.60
2018-11-07T09:52:11.142Z,103.80
2018-11-07T09:54:43.544Z,98.40
2018-11-07T09:57:15.705Z,101.60
2018-11-07T09:59:47.900Z,94.40
2018-11-07T10:02:20.227Z,104.00
2018-11-07T10:04:52.006Z,105.40
2018-11-07T10:07:24.026Z,105.60
2018-11-07T10:09:56.109Z,112.80
2018-11-07T10:12:29.010Z,106.80
2018-11-07T10:15:01.170Z,108.80
2018-11-07T10:17:33.337Z,114.00
2018-11-07T10:20:05.765Z,113.80
2018-11-07T10:22:37.951Z,106.60
2018-11-07T10:25:10.741Z,105.60
2018-11-07T10:27:43.359Z,112.00
2018-11-07T10:30:16.720Z,102.20
2018-11-07T10:32:50.701Z,114.00
2018-11-07T10:35:22.867Z,109.00
2018-11-07T10:37:54.953Z,101.80
2018-11-07T10:40:26.802Z,108.80
2018-11-07T10:42:58.852Z,108.80
2018-11-07T10:45:31.076Z,95.60
2018-11-07T10:48:03.259Z,94.60
2018-11-07T10:50:35.278Z,106.40
2018-11-07T10:53:07.323Z,99.00
2018-11-07T10:55:40.836Z,105.20
2018-11-07T10:58:12.929Z,103.40
2018-11-07T11:00:49.609Z,104.60
2018-11-07T11:03:26.199Z,86.00
2018-11-07T11:05:58.240Z,105.20
2018-11-07T11:08:31.728Z,97.40
2018-11-07T11:11:03.872Z,101.20
2018-11-07T11:13:36.048Z,105.20
2018-11-07T11:16:08.063Z,93.80
2018-11-07T11:18:39.824Z,94.80
2018-11-07T11:21:11.922Z,101.40
2018-11-07T11:23:43.999Z,108.40
2018-11-07T11:26:16.601Z,94.60
2018-11-07T11:28:48.634Z,104.20
2018-11-07T11:31:21.323Z,103.60
2018-11-07T11:33:53.504Z,97.40
2018-11-07T11:36:25.754Z,103.20
2018-11-07T11:38:57.712Z,105.40
2018-11-07T11:41:29.703Z,100.00
2018-11-07T11:44:01.828Z,95.00
2018-11-07T11:46:34.895Z,102.40
2018-11-07T11:49:07.061Z,93.80
2018-11-07T11:51:39.076Z,106.60
2018-11-07T11:54:11.260Z,96.60
2018-11-07T11:56:44.444Z,106.60
2018-11-07T11:59:16.699Z,92.00
2018-11-07T12:01:48.611Z,105.80
2018-11-07T12:04:20.621Z,107.80
2018-11-07T12:06:52.505Z,117.40
2018-11-07T12:09:24.626Z,114.00
2018-11-07T12:11:56.893Z,115.20
2018-11-07T12:14:28.725Z,117.60
2018-11-07T12:17:00.497Z,120.00
2018-11-07T12:19:32.629Z,125.60
2018-11-07T12:22:04.594Z,125.00
2018-11-07T12:24:36.591Z,117.60
2018-11-07T12:27:09.004Z,124.20
2018-11-07T12:29:41.116Z,135.60
2018-11-07T12:32:13.817Z,141.20
2018-11-07T12:34:45.831Z,135.60
2018-11-07T12:37:17.947Z,139.60
2018-11-07T12:39:50.552Z,138.00
2018-11-07T12:42:24.555Z,135.00
2018-11-07T12:44:56.523Z,141.60
2018-11-07T12:47:28.464Z,119.60
2018-11-07T12:50:00.414Z,134.00
2018-11-07T12:52:32.451Z,142.40
2018-11-07T12:55:04.652Z,129.00
2018-11-07T12:57:37.566Z,133.60
2018-11-07T13:00:13.195Z,127.00
2018-11-07T13:02:45.320Z,138.00
2018-11-07T13:05:18.343Z,134.00
2018-11-07T13:07:50.976Z,152.80
2018-11-07T13:10:23.419Z,137.20
2018-11-07T13:12:55.678Z,141.60
2018-11-07T13:15:27.925Z,155.00
2018-11-07T13:18:00.152Z,162.00
2018-11-07T13:20:32.213Z,158.00
2018-11-07T13:23:05.279Z,148.20
2018-11-07T13:25:37.330Z,152.60
2018-11-07T13:28:09.676Z,155.20
2018-11-07T13:30:41.804Z,158.00
2018-11-07T13:33:14.226Z,168.40
2018-11-07T13:35:46.174Z,162.40
2018-11-07T13:38:18.441Z,157.20
2018-11-07T13:40:50.445Z,162.00
2018-11-07T13:43:22.696Z,168.20
2018-11-07T13:45:54.485Z,167.40
2018-11-07T13:48:26.814Z,152.80
2018-11-07T13:50:59.066Z,183.40
2018-11-07T13:53:32.368Z,156.00
2018-11-07T13:56:04.179Z,163.00
2018-11-07T13:58:36.960Z,168.20
2018-11-07T14:01:08.658Z,175.25
2018-11-07T14:03:41.153Z,182.75
2018-11-07T14:06:13.272Z,227.00
2018-11-07T14:08:45.290Z,236.25
2018-11-07T14:11:17.384Z,236.25
2018-11-07T14:13:49.313Z,226.75
2018-11-07T14:16:21.620Z,229.75
2018-11-07T14:18:53.872Z,226.50
2018-11-07T14:21:25.884Z,243.75
2018-11-07T14:23:57.838Z,225.25
2018-11-07T14:26:29.746Z,214.00
2018-11-07T14:29:02.384Z,209.25
2018-11-07T14:31:36.344Z,216.50
2018-11-07T14:34:08.936Z,207.50
2018-11-07T14:36:40.592Z,220.00
2018-11-07T14:39:12.800Z,224.25
2018-11-07T14:41:44.636Z,205.50
2018-11-07T14:44:16.479Z,223.25
2018-11-07T14:46:48.381Z,213.50
2018-11-07T14:49:20.463Z,205.50
2018-11-07T14:51:52.545Z,193.75
2018-11-07T14:54:24.640Z,216.00
2018-11-07T14:56:56.608Z,210.25
2018-11-07T14:59:29.038Z,210.75
2018-11-07T15:02:01.980Z,226.50
2018-11-07T15:04:34.330Z,224.25
2018-11-07T15:07:06.796Z,230.50
2018-11-07T15:09:39.082Z,237.50
2018-11-07T15:12:10.363Z,233.50
2018-11-07T15:14:41.943Z,244.75
2018-11-07T15:17:13.625Z,232.00
2018-11-07T15:19:45.844Z,241.75
2018-11-07T15:22:17.770Z,245.25
2018-11-07T15:24:49.955Z,251.00
2018-11-07T15:27:21.925Z,255.75
2018-11-07T15:29:55.425Z,241.25
2018-11-07T15:32:28.933Z,233.75
2018-11-07T15:35:01.002Z,247.75
2018-11-07T15:37:33.020Z,239.75
2018-11-07T15:40:05.287Z,262.25
2018-11-07T15:42:37.372Z,257.25
2018-11-07T15:45:10.568Z,268.25
2018-11-07T15:47:44.708Z,266.00
2018-11-07T15:50:22.071Z,254.50
2018-11-07T15:52:54.164Z,174.25
2018-11-07T16:05:28.953Z,326.00
2018-11-07T16:08:01.527Z,318.00
2018-11-07T16:10:33.937Z,361.40
2018-11-07T16:13:06.709Z,351.20
2018-11-07T16:15:38.969Z,378.20
2018-11-07T16:18:10.994Z,384.80
2018-11-07T16:20:43.074Z,384.00
2018-11-07T16:23:15.253Z,393.50
2018-11-07T16:25:47.457Z,385.60
2018-11-07T16:28:19.768Z,501.60
2018-11-07T16:30:51.746Z,553.80
2018-11-07T16:33:24.442Z,513.80
2018-11-07T16:35:56.283Z,642.40
2018-11-07T16:38:28.863Z,656.20
2018-11-07T16:41:02.221Z,518.17
2018-11-07T16:43:34.317Z,585.00
2018-11-07T16:46:06.468Z,589.80
2018-11-07T16:48:40.347Z,559.67
2018-11-07T16:51:12.746Z,562.20
2018-11-07T16:53:46.575Z,608.50
2018-11-07T16:56:19.383Z,593.17
2018-11-07T16:58:52.607Z,602.00
2018-11-07T17:01:24.922Z,633.20
2018-11-07T17:03:57.391Z,631.80
2018-11-07T17:06:29.663Z,659.40
2018-11-07T17:09:02.214Z,632.20
2018-11-07T17:11:36.010Z,651.80
2018-11-07T17:14:07.932Z,675.20
2018-11-07T17:16:40.020Z,715.00
2018-11-07T17:19:11.872Z,763.17
2018-11-07T17:21:43.932Z,742.17
2018-11-07T17:24:16.215Z,742.00
2018-11-07T17:26:48.026Z,762.50
2018-11-07T18:18:02.565Z,709.17
2018-11-07T18:20:35.172Z,770.83
2018-11-07T18:23:07.574Z,812.33
2018-11-07T18:25:39.295Z,839.00
2018-11-07T18:28:11.563Z,835.00
2018-11-07T18:30:43.615Z,774.67
2018-11-07T18:33:15.852Z,864.67
2018-11-07T18:35:48.161Z,827.83
2018-11-07T18:38:22.822Z,850.67
2018-11-07T18:40:55.627Z,823.33
2018-11-07T18:43:27.933Z,825.17
2018-11-07T18:46:00.068Z,876.00
2018-11-07T18:48:32.659Z,853.33
2018-11-07T18:51:05.442Z,880.00
2018-11-07T18:53:37.396Z,887.33
2018-11-07T18:57:48.198Z,819.17
2018-11-07T19:00:21.244Z,867.17
2018-11-07T19:02:53.500Z,856.00
2018-11-07T19:05:25.609Z,862.50
2018-11-07T19:07:57.819Z,880.67
2018-11-07T19:10:29.896Z,849.00
2018-11-07T19:13:01.612Z,873.17
2018-11-07T19:15:33.657Z,842.50
2018-11-07T19:18:07.055Z,886.50
2018-11-07T19:20:39.159Z,859.50
2018-11-07T19:23:11.715Z,869.83
2018-11-07T21:08:14.981Z,942.33
2018-11-07T21:10:47.501Z,1083.83
2018-11-07T21:13:19.631Z,1052.33
2018-11-07T21:15:51.726Z,1111.17
2018-11-07T21:18:23.858Z,1080.50
2018-11-07T21:20:55.801Z,1068.00
2018-11-07T21:23:27.896Z,1030.33
2018-11-07T21:25:59.873Z,1100.33
2018-11-07T21:28:31.945Z,1096.00
2018-11-07T21:31:03.945Z,1012.00
2018-11-07T21:33:36.140Z,1066.00
2018-11-07T21:36:08.264Z,1088.00
2018-11-07T21:38:40.717Z,1073.00
2018-11-07T21:41:13.226Z,1013.50
2018-11-07T21:43:45.445Z,1133.67
2018-11-07T21:46:17.556Z,1095.67
2018-11-07T21:48:50.200Z,1027.33
2018-11-07T21:51:22.751Z,1074.83
2018-11-07T21:53:55.001Z,1096.50
2018-11-07T21:56:26.987Z,1080.17
2018-11-07T21:58:59.152Z,1042.33
2018-11-07T22:01:31.134Z,1021.17
2018-11-07T22:04:03.437Z,1050.40
2018-11-07T22:06:35.580Z,1034.60
2018-11-07T22:09:10.232Z,1067.00
2018-11-07T22:11:42.873Z,1009.00
2018-11-07T22:14:15.134Z,1029.00
2018-11-07T22:16:47.167Z,1026.40
2018-11-07T22:19:19.427Z,958.00
2018-11-07T22:21:51.728Z,966.20
2018-11-07T22:24:23.781Z,997.20
2018-11-07T22:26:55.799Z,1059.20
2018-11-07T22:29:27.899Z,997.20
2018-11-07T22:32:00.007Z,1017.40
2018-11-07T22:34:31.955Z,1000.60
2018-11-07T22:37:03.965Z,974.80
2018-11-07T22:39:36.050Z,1015.00
2018-11-07T22:42:08.919Z,968.60
2018-11-07T22:44:40.998Z,1044.00
2018-11-07T22:47:12.899Z,887.17
2018-11-07T22:49:45.014Z,971.20
2018-11-07T22:52:17.641Z,984.80
2018-11-07T22:54:49.740Z,967.50
2018-11-07T22:57:22.033Z,987.20
2018-11-07T22:59:54.048Z,966.83
2018-11-07T23:02:26.047Z,981.17
2018-11-07T23:04:58.215Z,955.50
2018-11-07T23:10:04.808Z,903.67
2018-11-07T23:12:37.606Z,909.00
2018-11-07T23:15:09.859Z,921.50
2018-11-07T23:17:41.963Z,891.33
2018-11-07T23:20:14.147Z,926.83
2018-11-07T23:22:46.183Z,897.83
2018-11-07T23:25:18.169Z,915.33
2018-11-07T23:27:50.191Z,855.83
2018-11-07T23:30:22.256Z,864.80
2018-11-07T23:32:54.523Z,882.80
2018-11-07T23:35:26.672Z,843.80
2018-11-07T23:37:58.661Z,881.40
2018-11-07T23:40:30.724Z,919.60
2018-11-07T23:51:59.565Z,938.33
2018-11-07T23:54:31.976Z,783.60
2018-11-07T23:57:04.174Z,777.80
2018-11-07T23:59:36.383Z,824.80
